Time;durP1;ratioP1;P1;durP2;ratioP2;P2;SDS_P1;SDS_P2;PMS_P1;PMS_P2;Temp;Humidity;BMP_temperature;BMP_pressure;BME280_temperature;BME280_humidity;BME280_pressure;Samples;Min_cycle;Max_cycle;Signal;HPM_P1;HPM_P2
2023/02/21 02:15:04;;;;;;;;;;;;;;;28.74;54.68;101278.22;5072763;27;68613;-41
2023/02/21 02:17:50;;;;;;;;;;;;;;;28.77;54.96;101285.91;5094363;27;65142;-41
2023/02/21 02:20:23;;;;;;;;;;;;;;;28.78;54.66;101276.81;5093318;27;69594;-41
2023/02/21 02:23:15;;;;;;;;;;;;;;;28.81;54.55;101280.97;5095516;27;66678;-43
2023/02/21 02:26:04;;;;;;;;;;;;;;;28.82;54.94;101279.94;5094310;27;69177;-41
2023/02/21 02:28:34;;;;;;;;;;;;;;;28.85;54.87;101277.66;5097489;27;66244;-41
2023/02/21 02:31:24;;;;;;;;;;;;;;;28.88;54.58;101277.28;5076211;27;70698;-43
2023/02/21 02:34:08;;;;;;;;;;;;;;;28.91;54.75;101281.44;5091651;27;66114;-43
2023/02/21 02:36:43;;;;;;;;;;;;;;;28.92;54.51;101278.56;5088568;27;69959;-40
2023/02/21 02:39:13;;;;;;;;;;;;;;;28.95;54.48;101275.47;5091434;27;67501;-41
2023/02/21 02:41:46;;;;;;;;;;;;;;;28.98;54.34;101276.09;5068990;27;70101;-41
2023/02/21 02:44:16;;;;;;;;;;;;;;;28.99;54.41;101272.34;5095703;27;66446;-40
2023/02/21 02:46:48;;;;;;;;;;;;;;;29.03;54.55;101268.22;5098137;27;70395;-41
2023/02/21 02:49:22;;;;;;;;;;;;;;;29.04;54.47;101267.22;5097170;27;65379;-41
2023/02/21 02:51:52;;;;;;;;;;;;;;;29.07;54.48;101274.94;5101059;27;70198;-40
2023/02/21 02:54:25;;;;;;;;;;;;;;;29.09;54.41;101272.88;5058090;27;65383;-42
2023/02/21 02:56:57;;;;;;;;;;;;;;;29.10;54.41;101275.38;5076590;27;70349;-43
2023/02/21 02:59:32;;;;;;;;;;;;;;;29.14;53.99;101275.78;5080781;27;65682;-40
2023/02/21 03:02:02;;;;;;;;;;;;;;;29.16;54.05;101269.16;5079735;27;70733;-41
2023/02/21 03:04:50;;;;;;;;;;;;;;;29.17;53.84;101270.84;5094678;27;66847;-41
2023/02/21 03:07:24;;;;;;;;;;;;;;;29.20;54.32;101264.22;5076727;27;71147;-41
2023/02/21 03:10:13;;;;;;;;;;;;;;;29.24;53.69;101270.03;5071354;27;66649;-43
2023/02/21 03:12:49;;;;;;;;;;;;;;;29.26;54.04;101268.81;5087318;27;69824;-41
2023/02/21 03:15:31;;;;;;;;;;;;;;;29.29;54.10;101279.22;5098804;27;66988;-39
2023/02/21 03:18:20;;;;;;;;;;;;;;;29.30;53.63;101272.75;5074235;27;70145;-41
2023/02/21 03:20:54;;;;;;;;;;;;;;;29.34;53.64;101279.44;5079812;27;67040;-42
2023/02/21 03:23:26;;;;;;;;;;;;;;;29.37;53.41;101281.75;5093637;27;70037;-41
2023/02/21 03:25:58;;;;;;;;;;;;;;;29.39;53.43;101268.88;5096052;27;66654;-40
2023/02/21 03:28:29;;;;;;;;;;;;;;;29.42;53.40;101272.19;5071192;27;69918;-40
2023/02/21 03:31:02;;;;;;;;;;;;;;;29.43;53.50;101266.59;5078557;27;65676;-42
2023/02/21 03:33:33;;;;;;;;;;;;;;;29.46;53.49;101263.50;5078357;27;69157;-41
2023/02/21 03:36:07;;;;;;;;;;;;;;;29.49;53.24;101268.50;5081278;27;66436;-43
2023/02/21 03:38:38;;;;;;;;;;;;;;;29.52;53.23;101267.25;5094973;27;70161;-41
2023/02/21 03:41:10;;;;;;;;;;;;;;;29.54;53.50;101254.38;5070880;27;66809;-40
2023/02/21 03:43:40;;;;;;;;;;;;;;;29.57;53.60;101260.22;5080001;27;70027;-40
2023/02/21 03:46:11;;;;;;;;;;;;;;;29.59;53.01;101258.16;5080095;27;65757;-41
2023/02/21 03:48:42;;;;;;;;;;;;;;;29.62;53.36;101240.69;5094117;27;71463;-43
2023/02/21 03:51:20;;;;;;;;;;;;;;;29.65;53.00;101247.59;5068496;27;65506;-42
2023/02/21 03:53:50;;;;;;;;;;;;;;;29.67;53.41;101231.97;5064725;27;70002;-41
2023/02/21 03:56:28;;;;;;;;;;;;;;;29.68;52.97;101239.91;5078275;27;67028;-42
2023/02/21 03:59:24;;;;;;;;;;;;;;;29.72;53.27;101230.31;5061621;27;70540;-41
2023/02/21 04:01:55;;;;;;;;;;;;;;;29.75;53.31;101234.50;5073257;27;65640;-41
2023/02/21 04:04:29;;;;;;;;;;;;;;;29.77;52.81;101227.84;5075059;27;70813;-44
2023/02/21 04:07:12;;;;;;;;;;;;;;;29.80;53.00;101222.03;5074166;27;65577;-41
2023/02/21 04:09:43;;;;;;;;;;;;;;;29.82;52.55;101211.84;5071793;27;69858;-42
2023/02/21 04:12:17;;;;;;;;;;;;;;;29.86;52.49;101208.72;5081072;27;66738;-43
2023/02/21 04:14:47;;;;;;;;;;;;;;;29.89;52.81;101200.19;5078969;27;70522;-42
2023/02/21 04:17:17;;;;;;;;;;;;;;;29.92;52.44;101199.78;5087262;27;66926;-41
2023/02/21 04:19:48;;;;;;;;;;;;;;;29.95;52.13;101202.06;5079032;27;69930;-40
2023/02/21 04:22:19;;;;;;;;;;;;;;;29.97;52.59;101194.59;5080312;27;66175;-40
2023/02/21 04:24:50;;;;;;;;;;;;;;;30.01;52.51;101185.03;5082270;27;69595;-42
2023/02/21 04:27:23;;;;;;;;;;;;;;;30.03;51.88;101177.53;5080366;27;66386;-41
2023/02/21 04:29:56;;;;;;;;;;;;;;;30.06;52.11;101177.13;5081822;27;68998;-41
2023/02/21 04:32:26;;;;;;;;;;;;;;;30.09;52.16;101171.31;5082049;27;65635;-43
2023/02/21 04:34:56;;;;;;;;;;;;;;;30.11;52.19;101169.22;5077789;27;70272;-43
2023/02/21 04:37:27;;;;;;;;;;;;;;;30.14;51.71;101155.25;5092020;27;66623;-43
2023/02/21 04:39:58;;;;;;;;;;;;;;;30.16;51.57;101153.19;5052600;27;69265;-42
2023/02/21 04:42:31;;;;;;;;;;;;;;;30.19;51.98;101144.66;5089744;27;66809;-41
2023/02/21 04:45:01;;;;;;;;;;;;;;;30.21;52.18;101142.56;5080069;27;68736;-41
2023/02/21 04:47:32;;;;;;;;;;;;;;;30.24;52.04;101139.47;5099259;27;65813;-42
2023/02/21 04:50:02;;;;;;;;;;;;;;;30.27;52.12;101135.53;5086628;27;70383;-42
2023/02/21 04:52:32;;;;;;;;;;;;;;;30.28;51.78;101138.03;5080807;27;66220;-41
2023/02/21 04:55:02;;;;;;;;;;;;;;;30.31;51.68;101133.22;5097812;27;69984;-41
2023/02/21 04:57:32;;;;;;;;;;;;;;;30.33;51.65;101125.72;5087251;27;66256;-42
2023/02/21 05:00:06;;;;;;;;;;;;;;;30.34;51.90;101114.72;5092870;27;70762;-42
2023/02/21 05:02:36;;;;;;;;;;;;;;;30.36;51.73;101112.59;5094464;27;66641;-41
2023/02/21 05:05:06;;;;;;;;;;;;;;;30.38;51.67;101104.28;5102304;27;70634;-43
2023/02/21 05:07:36;;;;;;;;;;;;;;;30.39;51.18;101104.06;5080025;27;66844;-41
2023/02/21 05:10:08;;;;;;;;;;;;;;;30.42;51.06;101100.09;5096700;27;70605;-42
2023/02/21 05:12:38;;;;;;;;;;;;;;;30.43;51.63;101093.66;5092532;27;66373;-40
2023/02/21 05:15:09;;;;;;;;;;;;;;;30.44;51.22;101088.00;5078105;27;69687;-41
2023/02/21 05:17:39;;;;;;;;;;;;;;;30.46;51.53;101090.53;5091053;27;65562;-41
2023/02/21 05:20:10;;;;;;;;;;;;;;;30.48;51.01;101086.56;5097659;27;69293;-41
2023/02/21 05:22:41;;;;;;;;;;;;;;;30.51;51.48;101079.91;5096110;27;67044;-41
2023/02/21 05:25:21;;;;;;;;;;;;;;;30.54;50.93;101075.94;5093261;27;70702;-41
2023/02/21 05:27:52;;;;;;;;;;;;;;;30.53;51.39;101068.84;5090559;27;65368;-41
2023/02/21 05:30:23;;;;;;;;;;;;;;;30.55;51.63;101056.75;5094654;27;68908;-43
2023/02/21 05:32:53;;;;;;;;;;;;;;;30.56;51.65;101058.41;5089433;27;67267;-41
2023/02/21 05:35:23;;;;;;;;;;;;;;;30.58;51.67;101053.63;5091615;27;68588;-41
2023/02/21 05:37:53;;;;;;;;;;;;;;;30.59;51.39;101052.59;5092876;27;65332;-41
2023/02/21 05:40:23;;;;;;;;;;;;;;;30.61;51.65;101053.19;5094843;27;70787;-41
2023/02/21 05:42:53;;;;;;;;;;;;;;;30.61;51.29;101045.06;5102294;27;65360;-44
2023/02/21 05:45:24;;;;;;;;;;;;;;;30.27;51.58;100984.81;5079481;27;70564;-44
2023/02/21 05:47:58;;;;;;;;;;;;;;;30.64;51.20;101031.09;5085650;27;66426;-41
2023/02/21 05:50:29;;;;;;;;;;;;;;;30.66;51.44;101031.72;5102467;27;70334;-41
2023/02/21 05:52:59;;;;;;;;;;;;;;;30.68;51.09;101024.22;5093871;27;67058;-42
2023/02/21 05:55:30;;;;;;;;;;;;;;;30.72;50.79;101024.59;5084675;27;71617;-41
2023/02/21 05:58:00;;;;;;;;;;;;;;;30.73;50.83;101016.28;5072162;27;66938;-41
2023/02/21 06:00:31;;;;;;;;;;;;;;;30.77;50.90;101007.72;5078014;27;70571;-43
2023/02/21 06:03:01;;;;;;;;;;;;;;;30.78;50.60;101001.25;5080827;27;66156;-43
2023/02/21 06:05:32;;;;;;;;;;;;;;;30.81;50.69;100993.53;5070915;27;69293;-42
2023/02/21 06:08:02;;;;;;;;;;;;;;;30.85;50.74;101004.78;5072298;27;65241;-42
2023/02/21 06:10:33;;;;;;;;;;;;;;;30.86;50.58;100998.31;5066846;27;70029;-41
2023/02/21 06:13:03;;;;;;;;;;;;;;;30.89;50.73;100997.88;5076319;27;66773;-43
2023/02/21 06:15:33;;;;;;;;;;;;;;;30.91;50.67;100993.06;5068459;27;70531;-42
2023/02/21 06:18:03;;;;;;;;;;;;;;;30.94;50.39;100989.94;5081024;27;65165;-43
2023/02/21 06:20:33;;;;;;;;;;;;;;;30.95;50.61;100975.31;5081481;27;70407;-42
2023/02/21 06:23:03;;;;;;;;;;;;;;;30.97;50.50;100967.00;5077297;27;66012;-43
2023/02/21 06:25:33;;;;;;;;;;;;;;;30.99;50.80;100963.03;5080588;27;70285;-46
2023/02/21 06:28:04;;;;;;;;;;;;;;;31.02;50.03;100965.28;5075790;28;66643;-42
2023/02/21 06:30:34;;;;;;;;;;;;;;;31.04;50.30;100957.78;5074076;27;70140;-42
2023/02/21 06:33:04;;;;;;;;;;;;;;;31.06;50.53;100955.66;5095266;27;65643;-42
2023/02/21 06:35:34;;;;;;;;;;;;;;;31.07;50.46;100951.91;5074668;27;70567;-42
2023/02/21 06:38:04;;;;;;;;;;;;;;;31.10;50.60;100939.81;5072677;27;66607;-42
2023/02/21 06:40:34;;;;;;;;;;;;;;;31.10;50.36;100940.63;5076462;27;70266;-41
2023/02/21 06:43:04;;;;;;;;;;;;;;;31.12;50.01;100930.41;5070538;27;66028;-44
2023/02/21 06:45:34;;;;;;;;;;;;;;;31.14;50.24;100925.59;5077214;27;69734;-43
2023/02/21 06:48:04;;;;;;;;;;;;;;;31.16;50.12;100922.66;5079721;27;66639;-42
2023/02/21 06:50:35;;;;;;;;;;;;;;;31.19;50.19;100915.97;5080377;27;70566;-43
2023/02/21 06:53:05;;;;;;;;;;;;;;;31.21;50.07;100917.41;5075930;27;65804;-43
2023/02/21 06:55:35;;;;;;;;;;;;;;;31.23;50.38;100911.75;5089317;27;70210;-41
2023/02/21 06:58:05;;;;;;;;;;;;;;;31.23;49.77;100912.63;5094277;27;66485;-40
2023/02/21 07:00:35;;;;;;;;;;;;;;;31.25;50.03;100904.25;5094942;27;71072;-42
2023/02/21 07:03:05;;;;;;;;;;;;;;;31.27;49.88;100913.81;5088361;27;66075;-42
2023/02/21 07:05:37;;;;;;;;;;;;;;;31.28;49.78;100895.66;5099485;27;70618;-42
2023/02/21 07:08:07;;;;;;;;;;;;;;;31.31;49.73;100889.78;5076924;27;66830;-45
2023/02/21 07:10:37;;;;;;;;;;;;;;;31.33;49.93;100891.22;5095002;27;70690;-42
2023/02/21 07:13:08;;;;;;;;;;;;;;;31.34;49.63;100892.91;5089562;27;65632;-43
2023/02/21 07:15:38;;;;;;;;;;;;;;;31.35;49.83;100877.47;5099840;27;69540;-42
2023/02/21 07:18:08;;;;;;;;;;;;;;;31.37;49.40;100878.09;5075688;27;66275;-43
2023/02/21 07:20:39;;;;;;;;;;;;;;;31.38;50.08;100872.44;5093974;27;70064;-40
2023/02/21 07:23:09;;;;;;;;;;;;;;;31.40;49.47;100872.25;5100237;27;66845;-41
2023/02/21 07:25:39;;;;;;;;;;;;;;;31.42;49.59;100863.88;5087761;27;69985;-42
2023/02/21 07:28:10;;;;;;;;;;;;;;;31.43;49.60;100858.25;5088535;27;66810;-42
2023/02/21 07:30:41;;;;;;;;;;;;;;;31.46;49.69;100857.78;5085233;27;70890;-43
2023/02/21 07:33:11;;;;;;;;;;;;;;;31.47;49.59;100848.59;5092026;27;66375;-42
2023/02/21 07:35:41;;;;;;;;;;;;;;;31.50;49.71;100853.56;5093974;27;69759;-42
2023/02/21 07:38:22;;;;;;;;;;;;;;;31.52;49.41;100846.03;5086318;27;66703;-40
2023/02/21 07:40:58;;;;;;;;;;;;;;;31.55;49.59;100850.19;5093504;27;69824;-41
2023/02/21 07:43:29;;;;;;;;;;;;;;;31.58;49.27;100850.56;5096531;27;66837;-41
2023/02/21 07:46:00;;;;;;;;;;;;;;;31.59;49.72;100852.22;5093963;27;69944;-40
2023/02/21 07:48:30;;;;;;;;;;;;;;;31.61;49.38;100844.66;5095658;27;66671;-42
2023/02/21 07:51:00;;;;;;;;;;;;;;;31.63;49.27;100846.34;5090546;27;70542;-41
2023/02/21 07:53:30;;;;;;;;;;;;;;;31.64;49.36;100837.97;5098037;27;65279;-42
2023/02/21 07:56:00;;;;;;;;;;;;;;;31.66;49.63;100841.28;5094475;27;69740;-43
2023/02/21 07:58:31;;;;;;;;;;;;;;;31.68;49.32;100838.34;5096948;27;66917;-42
2023/02/21 08:01:02;;;;;;;;;;;;;;;31.69;48.98;100838.13;5093802;27;69673;-41
2023/02/21 08:03:32;;;;;;;;;;;;;;;31.73;49.25;100833.06;5093199;27;66606;-42
2023/02/21 08:06:02;;;;;;;;;;;;;;;31.35;49.30;100774.47;5092607;27;69760;-42
2023/02/21 08:08:33;;;;;;;;;;;;;;;31.76;49.25;100832.59;5073197;27;66134;-41
2023/02/21 08:11:03;;;;;;;;;;;;;;;31.78;49.23;100827.78;5087358;27;70088;-41
2023/02/21 08:13:33;;;;;;;;;;;;;;;31.78;49.10;100825.91;5086851;27;66107;-41
2023/02/21 08:16:04;;;;;;;;;;;;;;;31.80;49.10;100825.69;5086852;27;70584;-43
2023/02/21 08:18:34;;;;;;;;;;;;;;;31.82;49.17;100823.59;5090368;27;65538;-41
2023/02/21 08:21:08;;;;;;;;;;;;;;;31.85;49.22;100816.88;5095444;27;70699;-42
2023/02/21 08:23:38;;;;;;;;;;;;;;;31.85;49.12;100816.88;5074067;27;65348;-41
2023/02/21 08:26:08;;;;;;;;;;;;;;;31.88;48.95;100817.25;5063761;28;69824;-42
2023/02/21 08:28:38;;;;;;;;;;;;;;;31.91;49.04;100811.38;5069183;27;66245;-42
2023/02/21 08:31:08;;;;;;;;;;;;;;;31.92;49.09;100812.22;5087872;27;69140;-42
2023/02/21 08:33:39;;;;;;;;;;;;;;;31.96;48.88;100814.25;5086375;27;66663;-41
2023/02/21 08:36:09;;;;;;;;;;;;;;;31.98;49.05;100809.41;5063150;27;70323;-41
2023/02/21 08:38:39;;;;;;;;;;;;;;;32.01;48.92;100811.66;5092469;27;66674;-43
2023/02/21 08:41:10;;;;;;;;;;;;;;;32.05;48.68;100812.03;5095717;27;70371;-44
2023/02/21 08:43:40;;;;;;;;;;;;;;;32.07;48.75;100806.34;5071699;27;66265;-41
2023/02/21 08:46:10;;;;;;;;;;;;;;;32.10;48.65;100795.06;5083885;27;70348;-40
2023/02/21 08:48:41;;;;;;;;;;;;;;;32.12;48.92;100804.59;5093172;27;66765;-43
2023/02/21 08:51:11;;;;;;;;;;;;;;;32.15;48.74;100801.47;5091593;27;70665;-41
2023/02/21 08:53:42;;;;;;;;;;;;;;;32.19;48.71;100796.38;4984115;27;2941907;-41
2023/02/21 08:56:17;;;;;;;;;;;;;;;32.23;48.65;100794.84;5094592;27;70537;-42
2023/02/21 08:58:47;;;;;;;;;;;;;;;32.25;48.64;100798.16;5072886;28;66309;-41
2023/02/21 09:01:18;;;;;;;;;;;;;;;32.28;48.60;100797.69;5088475;27;70647;-42
2023/02/21 09:03:48;;;;;;;;;;;;;;;32.32;48.13;100793.47;5087097;27;66144;-42
2023/02/21 09:06:18;;;;;;;;;;;;;;;32.33;48.36;100792.41;5096927;27;70704;-42
2023/02/21 09:08:48;;;;;;;;;;;;;;;32.36;48.20;100791.94;5096944;27;66628;-42
2023/02/21 09:11:18;;;;;;;;;;;;;;;32.39;48.38;100790.66;5093933;27;71406;-42
2023/02/21 09:13:49;;;;;;;;;;;;;;;32.21;48.15;100750.84;5092448;27;66577;-42
2023/02/21 09:16:19;;;;;;;;;;;;;;;32.44;48.74;100791.59;5092546;27;70882;-42
2023/02/21 09:18:57;;;;;;;;;;;;;;;32.18;49.15;100797.44;5089982;27;65759;-42
2023/02/21 09:21:28;;;;;;;;;;;;;;;32.02;49.61;100807.88;5064680;27;69808;-41
2023/02/21 09:23:58;;;;;;;;;;;;;;;31.97;50.01;100807.75;5095879;27;67541;-43
2023/02/21 09:26:31;;;;;;;;;;;;;;;31.93;50.39;100813.84;5084522;27;68942;-42
2023/02/21 09:29:01;;;;;;;;;;;;;;;31.86;51.44;100808.50;5094106;27;66689;-51
2023/02/21 09:31:31;;;;;;;;;;;;;;;31.87;51.37;100815.56;5096445;27;69573;-42
2023/02/21 09:34:01;;;;;;;;;;;;;;;31.82;51.99;100815.44;5098825;27;66036;-42
2023/02/21 09:36:34;;;;;;;;;;;;;;;31.84;52.10;100816.03;5094876;27;70210;-42
2023/02/21 09:39:05;;;;;;;;;;;;;;;31.82;52.55;100823.59;5091916;27;67112;-41
2023/02/21 09:41:36;;;;;;;;;;;;;;;31.85;53.13;100827.72;5094003;27;69274;-42
2023/02/21 09:44:06;;;;;;;;;;;;;;;31.79;53.57;100814.00;5096688;27;66824;-43
2023/02/21 09:46:48;;;;;;;;;;;;;;;31.82;53.65;100818.97;5093476;27;70009;-41
2023/02/21 09:49:20;;;;;;;;;;;;;;;31.84;53.83;100826.88;5096842;27;65460;-41
2023/02/21 09:51:52;;;;;;;;;;;;;;;31.80;54.44;100831.09;5094926;27;69100;-42
2023/02/21 09:54:32;;;;;;;;;;;;;;;31.82;54.53;100839.84;5094279;27;66386;-43
2023/02/21 09:57:04;;;;;;;;;;;;;;;31.82;54.72;100840.69;5092362;27;69788;-42
2023/02/21 09:59:35;;;;;;;;;;;;;;;31.82;54.94;100846.09;5094937;27;66042;-42
2023/02/21 10:02:14;;;;;;;;;;;;;;;31.83;55.25;100847.75;5095873;27;69872;-44
2023/02/21 10:04:56;;;;;;;;;;;;;;;31.83;55.41;100853.19;5095797;27;66728;-43
2023/02/21 10:07:36;;;;;;;;;;;;;;;31.81;55.90;100854.44;5092874;27;70296;-43
2023/02/21 10:10:27;;;;;;;;;;;;;;;31.82;56.07;100856.13;5100274;27;66216;-42
2023/02/21 10:13:17;;;;;;;;;;;;;;;31.79;56.20;100857.41;5096468;27;68779;-42
2023/02/21 10:15:47;;;;;;;;;;;;;;;31.78;56.75;100860.34;5091183;27;65573;-42
2023/02/21 10:18:24;;;;;;;;;;;;;;;31.81;57.90;100868.00;5094860;27;70086;-42
2023/02/21 10:20:58;;;;;;;;;;;;;;;31.82;57.45;100869.69;5079018;27;65514;-42
2023/02/21 10:23:31;;;;;;;;;;;;;;;31.83;57.56;100874.88;5073726;27;69699;-45
2023/02/21 10:26:06;;;;;;;;;;;;;;;31.81;57.94;100876.16;5094642;27;66587;-43
2023/02/21 10:28:36;;;;;;;;;;;;;;;31.80;57.34;100885.34;5098236;27;70409;-43
2023/02/21 10:31:35;;;;;;;;;;;;;;;31.77;57.79;100886.63;5094100;27;66041;-43
2023/02/21 10:34:15;;;;;;;;;;;;;;;31.74;58.25;100891.69;5083859;27;70091;-41
2023/02/21 10:36:46;;;;;;;;;;;;;;;31.72;59.06;100894.63;5095907;27;65624;-39
2023/02/21 10:39:37;;;;;;;;;;;;;;;31.72;59.66;100897.31;5099814;27;70091;-40
2023/02/21 10:42:12;;;;;;;;;;;;;;;31.71;59.91;100908.41;5090718;27;66174;-42
2023/02/21 10:44:42;;;;;;;;;;;;;;;31.68;59.49;100909.69;5096063;27;70440;-40
2023/02/21 10:47:23;;;;;;;;;;;;;;;31.66;59.62;100917.22;5099205;27;66848;-40
2023/02/21 10:50:00;;;;;;;;;;;;;;;31.66;60.40;100921.81;5089645;27;69476;-43
2023/02/21 10:52:36;;;;;;;;;;;;;;;31.67;60.59;100928.88;5096184;27;66765;-42
2023/02/21 10:55:14;;;;;;;;;;;;;;;31.65;60.33;100931.00;5093121;27;70589;-43
2023/02/21 10:58:09;;;;;;;;;;;;;;;31.65;60.15;100936.41;5096994;27;66961;-41
2023/02/21 11:00:46;;;;;;;;;;;;;;;31.65;60.45;100947.25;5088890;27;69758;-41
2023/02/21 11:03:19;;;;;;;;;;;;;;;31.65;60.60;100942.69;5088233;27;67198;-41
2023/02/21 11:05:56;;;;;;;;;;;;;;;31.63;59.98;100938.53;5095510;27;69965;-41
2023/02/21 11:08:41;;;;;;;;;;;;;;;31.63;59.73;100943.97;5095282;27;66763;-43
2023/02/21 11:11:11;;;;;;;;;;;;;;;31.57;59.18;100941.09;5087161;27;70616;-42
2023/02/21 11:13:43;;;;;;;;;;;;;;;31.55;59.50;100943.19;5095479;27;67689;-41
2023/02/21 11:16:23;;;;;;;;;;;;;;;31.53;59.19;100950.72;5086717;27;69961;-42
2023/02/21 11:19:06;;;;;;;;;;;;;;;31.51;59.30;100947.41;5090701;27;66206;-44
2023/02/21 11:21:37;;;;;;;;;;;;;;;31.49;59.63;100954.94;5092756;27;70011;-43
2023/02/21 11:24:07;;;;;;;;;;;;;;;31.49;59.53;100963.06;5093145;27;66589;-42
2023/02/21 11:26:52;;;;;;;;;;;;;;;31.49;59.23;100960.34;5089995;27;69104;-45
2023/02/21 11:29:24;;;;;;;;;;;;;;;31.46;58.79;100965.41;5094530;27;64657;-42
2023/02/21 11:31:55;;;;;;;;;;;;;;;31.42;58.80;100965.00;5077889;27;70327;-42
2023/02/21 11:34:28;;;;;;;;;;;;;;;31.39;58.38;100968.97;5090892;27;66097;-43
2023/02/21 11:37:01;;;;;;;;;;;;;;;31.39;58.29;100973.56;5089092;27;69274;-44
2023/02/21 11:39:32;;;;;;;;;;;;;;;31.37;58.14;100970.25;5094580;27;65562;-44
2023/02/21 11:42:05;;;;;;;;;;;;;;;31.34;57.82;100974.22;5092513;27;70592;-42
2023/02/21 11:44:39;;;;;;;;;;;;;;;31.35;57.81;100983.19;5092002;27;67059;-46
2023/02/21 11:47:15;;;;;;;;;;;;;;;31.32;57.39;100987.16;5091898;27;70251;-43
2023/02/21 11:50:00;;;;;;;;;;;;;;;31.30;57.50;100988.44;5076202;27;65941;-42
2023/02/21 11:52:46;;;;;;;;;;;;;;;31.27;57.52;100992.41;5088369;27;70372;-43
2023/02/21 11:55:22;;;;;;;;;;;;;;;31.28;57.42;100988.63;5089335;27;66674;-44
2023/02/21 11:58:05;;;;;;;;;;;;;;;31.27;57.25;100994.28;5086536;27;70567;-42
2023/02/21 12:00:36;;;;;;;;;;;;;;;31.25;57.39;100990.97;5094435;27;66912;-41
2023/02/21 12:03:10;;;;;;;;;;;;;;;31.24;57.02;101000.16;5092595;27;70391;-42
2023/02/21 12:05:52;;;;;;;;;;;;;;;31.20;57.37;101002.44;5093867;27;66326;-43
2023/02/21 12:08:42;;;;;;;;;;;;;;;31.19;56.95;100999.97;5091081;27;69965;-43
2023/02/21 12:11:32;;;;;;;;;;;;;;;31.16;56.94;101007.50;5083730;27;65875;-42
2023/02/21 12:14:03;;;;;;;;;;;;;;;31.14;57.19;101004.16;5095275;27;70285;-42
2023/02/21 12:16:41;;;;;;;;;;;;;;;31.13;57.71;101005.22;5093131;27;66873;-42
2023/02/21 12:19:50;;;;;;;;;;;;;;;31.12;57.57;101003.56;5092928;27;69678;-43
2023/02/21 12:22:37;;;;;;;;;;;;;;;31.13;57.96;101012.53;5051695;28;66958;-43
2023/02/21 12:25:22;;;;;;;;;;;;;;;31.10;57.93;101008.38;5057042;28;69718;-44
2023/02/21 12:28:00;;;;;;;;;;;;;;;31.08;58.50;101018.59;5081749;27;66906;-42
2023/02/21 12:30:49;;;;;;;;;;;;;;;31.06;58.58;101012.56;5060591;27;70040;-44
2023/02/21 12:33:40;;;;;;;;;;;;;;;31.06;58.76;101019.84;5075009;27;65403;-44
2023/02/21 12:36:19;;;;;;;;;;;;;;;31.06;58.99;101019.84;5093350;27;68744;-44
2023/02/21 12:38:55;;;;;;;;;;;;;;;31.05;59.12;101024.44;5094034;27;66822;-42
2023/02/21 12:41:40;;;;;;;;;;;;;;;31.05;59.24;101024.44;5093084;27;70364;-42
2023/02/21 12:44:15;;;;;;;;;;;;;;;31.04;59.46;101021.97;5093839;27;66814;-44
2023/02/21 12:47:03;;;;;;;;;;;;;;;31.03;59.16;101023.00;5091262;27;69131;-43
2023/02/21 12:49:43;;;;;;;;;;;;;;;31.02;59.53;101024.06;5083660;27;66824;-43
2023/02/21 12:52:20;;;;;;;;;;;;;;;31.00;59.35;101026.16;5094629;27;70343;-43
2023/02/21 12:54:52;;;;;;;;;;;;;;;30.97;60.09;101027.41;5092395;27;66334;-45
2023/02/21 12:57:29;;;;;;;;;;;;;;;30.98;59.94;101030.94;5081470;27;70649;-45
2023/02/21 13:00:06;;;;;;;;;;;;;;;30.96;60.16;101025.75;5087932;27;66103;-43
2023/02/21 13:02:55;;;;;;;;;;;;;;;30.93;61.22;101026.19;5095510;27;70591;-44
2023/02/21 13:05:43;;;;;;;;;;;;;;;30.91;61.25;101022.88;5073424;27;66332;-42
2023/02/21 13:08:21;;;;;;;;;;;;;;;30.89;61.63;101030.38;5068750;27;69594;-42
2023/02/21 13:11:13;;;;;;;;;;;;;;;30.87;61.59;101032.47;5092163;27;67409;-51
2023/02/21 13:13:44;;;;;;;;;;;;;;;30.86;61.76;101033.53;5090834;27;70199;-44
2023/02/21 13:16:21;;;;;;;;;;;;;;;30.84;61.73;101031.03;5089019;27;65642;-42
2023/02/21 13:18:58;;;;;;;;;;;;;;;30.81;61.64;101027.91;5091658;27;70342;-42
2023/02/21 13:21:45;;;;;;;;;;;;;;;30.80;61.73;101026.28;5072898;27;66144;-42
2023/02/21 13:24:39;;;;;;;;;;;;;;;30.79;61.63;101030.00;5094743;27;70842;-42
2023/02/21 13:27:23;;;;;;;;;;;;;;;30.77;62.25;101037.50;5092591;27;66495;-42
2023/02/21 13:30:14;;;;;;;;;;;;;;;30.76;62.77;101028.56;5080456;27;70004;-43
2023/02/21 13:32:54;;;;;;;;;;;;;;;30.75;63.11;101031.47;5077442;27;64732;-42
2023/02/21 13:35:35;;;;;;;;;;;;;;;30.73;62.74;101037.94;5075607;27;70194;-43
2023/02/21 13:38:10;;;;;;;;;;;;;;;30.29;63.10;100957.56;5097123;27;67267;-43
2023/02/21 13:41:05;;;;;;;;;;;;;;;30.70;63.45;101037.53;5095528;27;69579;-43
2023/02/21 13:43:52;;;;;;;;;;;;;;;30.71;63.87;101037.31;5096992;27;66808;-42
2023/02/21 13:46:24;;;;;;;;;;;;;;;30.62;64.52;101041.31;5061935;27;70824;-41
2023/02/21 13:49:17;;;;;;;;;;;;;;;30.54;64.50;101044.28;5095885;27;65407;-41
2023/02/21 13:51:54;;;;;;;;;;;;;;;30.46;64.77;101049.91;5099646;27;69839;-40
2023/02/21 13:54:27;;;;;;;;;;;;;;;30.42;64.89;101051.38;5074724;27;66270;-41
2023/02/21 13:56:59;;;;;;;;;;;;;;;30.49;65.40;101052.19;5090440;27;69141;-43
2023/02/21 13:59:34;;;;;;;;;;;;;;;30.55;65.44;101056.75;5046096;27;65245;-43
2023/02/21 14:02:22;;;;;;;;;;;;;;;30.59;66.11;101060.72;5089665;27;70095;-42
2023/02/21 14:04:52;;;;;;;;;;;;;;;30.63;66.23;101059.22;5090861;27;66663;-41
2023/02/21 14:07:47;;;;;;;;;;;;;;;30.67;66.30;101063.19;5090722;27;70309;-41
2023/02/21 14:10:42;;;;;;;;;;;;;;;30.70;66.03;101070.88;5077601;27;65974;-42
2023/02/21 14:13:31;;;;;;;;;;;;;;;30.76;66.56;101076.44;5097237;27;69349;-43
2023/02/21 14:16:13;;;;;;;;;;;;;;;30.77;66.04;101075.41;5089878;27;65700;-41
2023/02/21 14:19:00;;;;;;;;;;;;;;;30.78;66.40;101071.66;5091245;27;70434;-43
2023/02/21 14:21:45;;;;;;;;;;;;;;;30.64;63.73;101079.81;5094379;27;66752;-43
2023/02/21 14:24:21;;;;;;;;;;;;;;;30.42;61.09;101083.84;5063918;27;69687;-43
2023/02/21 14:27:01;;;;;;;;;;;;;;;30.22;58.51;101084.72;5082654;27;66864;-45
2023/02/21 14:29:39;;;;;;;;;;;;;;;30.01;56.08;101087.66;5096231;27;70424;-43
2023/02/21 14:32:09;;;;;;;;;;;;;;;29.83;54.79;101091.81;5092425;27;65265;-41
2023/02/21 14:34:47;;;;;;;;;;;;;;;29.72;54.14;101088.91;5061266;27;70034;-45
2023/02/21 14:37:35;;;;;;;;;;;;;;;29.63;52.68;101096.38;5091300;27;66886;-42
2023/02/21 14:40:13;;;;;;;;;;;;;;;29.53;51.82;101106.72;5092377;27;70094;-43
2023/02/21 14:43:07;;;;;;;;;;;;;;;29.43;51.32;101103.63;5090039;27;66030;-44
2023/02/21 14:46:06;;;;;;;;;;;;;;;29.35;50.67;101105.47;5095955;27;68187;-42
2023/02/21 14:48:57;;;;;;;;;;;;;;;29.24;49.94;101114.16;5093805;27;65915;-45
2023/02/21 14:52:02;;;;;;;;;;;;;;;29.15;48.97;101112.69;5089419;27;70701;-41
2023/02/21 14:54:41;;;;;;;;;;;;;;;29.11;50.13;101114.97;5037147;27;66583;-42
2023/02/21 14:57:33;;;;;;;;;;;;;;;29.08;48.93;101120.75;5071378;28;70530;-43
2023/02/21 15:00:22;;;;;;;;;;;;;;;29.02;48.30;101123.41;5072852;28;65815;-42
2023/02/21 15:03:11;;;;;;;;;;;;;;;28.94;47.47;101109.03;5058918;28;69332;-41
2023/02/21 15:06:12;;;;;;;;;;;;;;;28.90;47.25;101112.38;5073749;27;64811;-42
2023/02/21 15:08:50;;;;;;;;;;;;;;;28.83;46.32;101111.50;5075313;28;70649;-42
2023/02/21 15:11:28;;;;;;;;;;;;;;;28.79;46.33;101111.06;5071203;27;65467;-43
2023/02/21 15:14:24;;;;;;;;;;;;;;;28.71;45.56;101108.53;5068198;27;69379;-43
2023/02/21 15:16:57;;;;;;;;;;;;;;;28.65;45.09;101109.34;5070573;27;66345;-44
2023/02/21 15:19:35;;;;;;;;;;;;;;;28.60;44.78;101111.81;5070834;27;70596;-42
2023/02/21 15:22:13;;;;;;;;;;;;;;;28.58;44.98;101113.84;5087246;27;65353;-41
2023/02/21 15:24:58;;;;;;;;;;;;;;;28.59;45.49;101115.53;5071212;27;70712;-41
2023/02/21 15:27:29;;;;;;;;;;;;;;;28.66;44.77;101122.63;5071731;27;66457;-44
2023/02/21 15:30:07;;;;;;;;;;;;;;;28.67;44.16;101118.09;5076738;27;70682;-41
2023/02/21 15:32:57;;;;;;;;;;;;;;;28.69;44.26;101116.00;5071951;28;66793;-40